Climatologie pour Saint-Brevin les Pins
Jour • Résumé pour mai 18, 2017 Système :  Métrique    Anglais   Mixte
« - 1 jour
+ 1 jour »
Jour Semaine Mois Année Personnalisé
  Maximum : Minimum : Moyenne :
Température sous abri : -17.8 °C -12.2 °C -10.6 °C
Point de rosée : -17.8 °C -13.7 °C -11.7 °C
Humidité : Humidity % 71 % 88 %
Vitesse du vent : 0 km/h 0 km/h 11.4 km/h
Rafale : 0 km/h - -
Direction :- - West
Pression : 0 hPa 34313.7 hPa -
Précipitations : 33.02 mm    
Historical Graphs
 
 
Tableau de données pour mai 18, 2017
Heure Tempé Pt rosée Pression Vent Vitesse Rafale Humidité Taux pluie (/hr) Soleil
-17.8 °C -17.8 °C 0 hPa Calm     Humidity % 0 mm SolarRadiationWatts/m^2 W/m2 Conditions
00:00 -9.4 °C -9.6 °C 34347.6 hPa SW 2.6 km/h 25.9 km/h 98 % 12.7 mm 0 W/m2
00:05 -9.4 °C -9.6 °C 34347.6 hPa SW 12.9 km/h 25.9 km/h 98 % 12.7 mm 0 W/m2
00:10 -9.4 °C -9.6 °C 34347.6 hPa West 5.1 km/h 18.2 km/h 98 % 7.62 mm 0 W/m2
00:15 -9.4 °C -9.6 °C 34347.6 hPa WSW 7.7 km/h 18.2 km/h 98 % 7.62 mm 0 W/m2
00:25 -9.5 °C -9.7 °C 34347.6 hPa WSW 7.7 km/h 20.8 km/h 98 % 0 mm 0 W/m2
00:30 -9.6 °C -9.8 °C 34347.6 hPa WSW 10.3 km/h 20.8 km/h 97 % 0 mm 0 W/m2
00:40 -9.6 °C -9.7 °C 34347.6 hPa SW 10.3 km/h 18.2 km/h 98 % 0 mm 0 W/m2
00:45 -9.6 °C -9.7 °C 34347.6 hPa WSW 2.6 km/h 18.2 km/h 98 % 0 mm 0 W/m2
00:50 -9.6 °C -9.7 °C 34347.6 hPa Calm   10.3 km/h 98 % 0 mm 0 W/m2
00:55 -9.5 °C -9.7 °C 34347.6 hPa West 7.7 km/h 10.3 km/h 98 % 0 mm 0 W/m2
01:05 -9.5 °C -9.7 °C 34347.6 hPa Calm   10.3 km/h 98 % 7.62 mm 0 W/m2
01:10 -9.5 °C -9.7 °C 34337.4 hPa WSW 5.1 km/h 10.3 km/h 98 % 7.62 mm 0 W/m2
01:15 -9.5 °C -9.7 °C 34337.4 hPa Calm   7.7 km/h 98 % 12.7 mm 0 W/m2
01:20 -9.5 °C -9.7 °C 34347.6 hPa West 5.1 km/h 15.6 km/h 98 % 12.7 mm 0 W/m2
01:25 -9.6 °C -9.7 °C 34347.6 hPa West 2.6 km/h 15.6 km/h 98 % 12.7 mm 0 W/m2
01:30 -9.6 °C -9.7 °C 34337.4 hPa West 2.6 km/h 10.3 km/h 98 % 12.7 mm 0 W/m2
01:35 -9.6 °C -9.8 °C 34337.4 hPa WNW 2.6 km/h 10.3 km/h 98 % 12.7 mm 0 W/m2
01:40 -9.6 °C -9.8 °C 34337.4 hPa Calm   10.3 km/h 98 % 12.7 mm 0 W/m2
01:45 -9.6 °C -9.8 °C 34337.4 hPa Calm   10.3 km/h 98 % 12.7 mm 0 W/m2
01:50 -9.6 °C -9.8 °C 34337.4 hPa Calm   10.3 km/h 98 % 12.7 mm 0 W/m2
01:55 -9.6 °C -9.8 °C 34337.4 hPa Calm   10.3 km/h 98 % 12.7 mm 0 W/m2
02:00 -9.6 °C -9.8 °C 34337.4 hPa Calm   5.1 km/h 98 % 12.7 mm 0 W/m2
02:05 -9.6 °C -9.8 °C 34337.4 hPa Calm   2.6 km/h 98 % 7.62 mm 0 W/m2
02:10 -9.6 °C -9.8 °C 34327.3 hPa West 5.1 km/h 5.1 km/h 98 % 7.62 mm 0 W/m2
02:15 -9.6 °C -9.8 °C 34327.3 hPa Calm   7.7 km/h 98 % 0 mm 0 W/m2
02:20 -9.6 °C -9.8 °C 34327.3 hPa Calm   7.7 km/h 98 % 0 mm 0 W/m2
02:25 -9.6 °C -9.8 °C 34327.3 hPa Calm   2.6 km/h 98 % 0 mm 0 W/m2
02:30 -9.6 °C -9.8 °C 34327.3 hPa Calm   7.7 km/h 98 % 0 mm 0 W/m2
02:35 -9.6 °C -9.8 °C 34327.3 hPa Calm   7.7 km/h 98 % 0 mm 0 W/m2
02:40 -9.6 °C -9.7 °C 34327.3 hPa Calm   7.7 km/h 98 % 0 mm 0 W/m2
02:45 -9.6 °C -9.8 °C 34327.3 hPa Calm   10.3 km/h 98 % 0 mm 0 W/m2
02:50 -9.6 °C -9.8 °C 34327.3 hPa West 2.6 km/h 10.3 km/h 98 % 0 mm 0 W/m2
02:55 -9.6 °C -9.8 °C 34313.7 hPa Calm   10.3 km/h 98 % 0 mm 0 W/m2
03:00 -9.6 °C -9.8 °C 34313.7 hPa Calm   12.9 km/h 98 % 0 mm 0 W/m2
03:05 -9.6 °C -9.8 °C 34313.7 hPa Calm   12.9 km/h 98 % 0 mm 0 W/m2
03:10 -9.6 °C -9.8 °C 34327.3 hPa Calm   2.6 km/h 98 % 0 mm 0 W/m2
03:15 -9.6 °C -9.8 °C 34313.7 hPa WNW 2.6 km/h 10.3 km/h 98 % 0 mm 0 W/m2
03:20 -9.6 °C -9.8 °C 34313.7 hPa Calm   10.3 km/h 98 % 0 mm 0 W/m2
03:25 -9.7 °C -9.9 °C 34313.7 hPa NNW 10.3 km/h 23.3 km/h 98 % 0 mm 0 W/m2
03:30 -9.8 °C -10 °C 34313.7 hPa NW 12.9 km/h 23.3 km/h 98 % 7.62 mm 0 W/m2
03:35 -9.9 °C -10.2 °C 34327.3 hPa Calm   23.3 km/h 98 % 7.62 mm 0 W/m2
03:40 -10.1 °C -10.2 °C 34327.3 hPa NNW 2.6 km/h 18.2 km/h 98 % 7.62 mm 0 W/m2
03:45 -10.1 °C -10.3 °C 34327.3 hPa NNW 5.1 km/h 25.9 km/h 98 % 12.7 mm 0 W/m2
03:50 -10.2 °C -10.4 °C 34327.3 hPa Calm   33.6 km/h 98 % 12.7 mm 0 W/m2
03:55 -10.3 °C -10.5 °C 34327.3 hPa Calm   33.6 km/h 98 % 12.7 mm 0 W/m2
04:00 -10.4 °C -10.6 °C 34327.3 hPa Calm   25.9 km/h 98 % 12.7 mm 0 W/m2
04:05 -10.7 °C -10.8 °C 34327.3 hPa North 18.2 km/h 25.9 km/h 98 % 12.7 mm 0 W/m2
04:10 -10.8 °C -10.9 °C 34327.3 hPa NNW 10.3 km/h 28.5 km/h 98 % 12.7 mm 0 W/m2
04:15 -10.8 °C -11 °C 34327.3 hPa NNE 15.6 km/h 28.5 km/h 98 % 12.7 mm 0 W/m2
04:20 -10.9 °C -11.1 °C 34327.3 hPa North 10.3 km/h 28.5 km/h 98 % 12.7 mm 0 W/m2
04:25 -10.9 °C -11.1 °C 34327.3 hPa Calm   23.3 km/h 98 % 12.7 mm 0 W/m2
04:30 -10.9 °C -11.1 °C 34327.3 hPa NW 2.6 km/h 20.8 km/h 98 % 7.62 mm 0 W/m2
04:35 -10.9 °C -11.1 °C 34337.4 hPa NNE 12.9 km/h 23.3 km/h 98 % 7.62 mm 0 W/m2
04:40 -11 °C -11.2 °C 34337.4 hPa NW 2.6 km/h 23.3 km/h 98 % 7.62 mm 0 W/m2
04:45 -11.1 °C -11.3 °C 34337.4 hPa WNW 12.9 km/h 23.3 km/h 98 % 0 mm 0 W/m2
04:50 -11.2 °C -11.4 °C 34337.4 hPa North 15.6 km/h 31.1 km/h 98 % 0 mm 0 W/m2
04:55 -11.3 °C -11.5 °C 34337.4 hPa NNW 20.8 km/h 31.1 km/h 98 % 7.62 mm 0 W/m2
05:00 -11.4 °C -11.6 °C 34337.4 hPa NNW 12.9 km/h 28.5 km/h 98 % 7.62 mm 0 W/m2
05:05 -11.6 °C -11.7 °C 34347.6 hPa NW 12.9 km/h 36.2 km/h 98 % 7.62 mm 0 W/m2
05:10 -11.6 °C -11.8 °C 34347.6 hPa NNW 12.9 km/h 36.2 km/h 98 % 7.62 mm 0 W/m2
05:15 -11.6 °C -11.8 °C 34347.6 hPa NNW 7.7 km/h 25.9 km/h 98 % 7.62 mm 0 W/m2
05:20 -11.6 °C -11.8 °C 34347.6 hPa Calm   28.5 km/h 98 % 7.62 mm 0 W/m2
05:25 -11.7 °C -11.9 °C 34347.6 hPa East 2.6 km/h 36.2 km/h 98 % 7.62 mm 0 W/m2
05:30 -11.7 °C -11.9 °C 34361.1 hPa NW 10.3 km/h 36.2 km/h 98 % 7.62 mm 0 W/m2
05:35 -11.7 °C -11.9 °C 34361.1 hPa NNW 12.9 km/h 25.9 km/h 98 % 7.62 mm 0 W/m2
05:40 -11.7 °C -11.9 °C 34347.6 hPa North 5.1 km/h 20.8 km/h 98 % 7.62 mm 0 W/m2
05:45 -11.7 °C -11.8 °C 34347.6 hPa NNW 7.7 km/h 25.9 km/h 98 % 7.62 mm 0 W/m2
05:50 -11.7 °C -11.9 °C 34347.6 hPa North 15.6 km/h 28.5 km/h 98 % 7.62 mm 0 W/m2
05:55 -11.8 °C -12 °C 34347.6 hPa North 2.6 km/h 28.5 km/h 98 % 0 mm 0 W/m2
06:00 -11.9 °C -12.1 °C 34347.6 hPa WNW 2.6 km/h 28.5 km/h 98 % 0 mm 0 W/m2
06:05 -11.9 °C -12.1 °C 34347.6 hPa NNW 25.9 km/h 33.6 km/h 98 % 0 mm 0 W/m2
06:10 -12.1 °C -12.2 °C 34347.6 hPa North 18.2 km/h 33.6 km/h 98 % 0 mm 0 W/m2
06:15 -12.1 °C -12.2 °C 34337.4 hPa NNE 25.9 km/h 33.6 km/h 98 % 0 mm 0 W/m2
06:20 -12.2 °C -12.3 °C 34361.1 hPa North 10.3 km/h 33.6 km/h 98 % 0 mm 0 W/m2
06:25 -12.2 °C -12.3 °C 34361.1 hPa NNW 12.9 km/h 31.1 km/h 98 % 0 mm 0 W/m2
06:30 -12.2 °C -12.3 °C 34361.1 hPa North 2.6 km/h 20.8 km/h 98 % 0 mm 0 W/m2
06:35 -12.2 °C -12.4 °C 34361.1 hPa NNW 7.7 km/h 25.9 km/h 98 % 0 mm 0 W/m2
06:40 -12.2 °C -12.4 °C 34361.1 hPa NE 10.3 km/h 25.9 km/h 98 % 0 mm 0 W/m2
06:45 -12.2 °C -12.4 °C 34361.1 hPa NNW 2.6 km/h 23.3 km/h 98 % 0 mm 0 W/m2
06:50 -12.2 °C -12.4 °C 34361.1 hPa NNW 2.6 km/h 18.2 km/h 98 % 0 mm 0 W/m2
06:55 -12.2 °C -12.3 °C 34361.1 hPa NW 5.1 km/h 20.8 km/h 98 % 0 mm 5 W/m2
07:00 -12.1 °C -12.3 °C 34361.1 hPa NNW 12.9 km/h 20.8 km/h 98 % 0 mm 7 W/m2
07:05 -12.2 °C -12.3 °C 34347.6 hPa NNE 10.3 km/h 25.9 km/h 98 % 0 mm 9 W/m2
07:10 -12.2 °C -12.3 °C 34347.6 hPa Calm   25.9 km/h 98 % 0 mm 9 W/m2
07:15 -12.2 °C -12.3 °C 34347.6 hPa NNW 10.3 km/h 20.8 km/h 98 % 0 mm 5 W/m2
07:20 -12.2 °C -12.3 °C 34347.6 hPa NNW 5.1 km/h 20.8 km/h 98 % 0 mm 5 W/m2
07:30 -12.2 °C -12.3 °C 34347.6 hPa WNW 12.9 km/h 23.3 km/h 98 % 0 mm 14 W/m2
07:35 -12.2 °C -12.3 °C 34347.6 hPa NW 10.3 km/h 23.3 km/h 98 % 0 mm 16 W/m2
07:40 -12.2 °C -12.3 °C 34361.1 hPa WNW 2.6 km/h 25.9 km/h 98 % 0 mm 19 W/m2
07:45 -12.2 °C -12.3 °C 34347.6 hPa WNW 12.9 km/h 25.9 km/h 98 % 0 mm 21 W/m2
07:50 -12.2 °C -12.3 °C 34347.6 hPa NNE 23.3 km/h 25.9 km/h 98 % 0 mm 25 W/m2
07:55 -12.2 °C -12.3 °C 34347.6 hPa NW 5.1 km/h 28.5 km/h 98 % 0 mm 32 W/m2
08:00 -12.2 °C -12.4 °C 34347.6 hPa North 2.6 km/h 28.5 km/h 98 % 0 mm 46 W/m2
08:05 -12.1 °C -12.3 °C 34347.6 hPa NW 10.3 km/h 25.9 km/h 98 % 0 mm 35 W/m2
08:10 -12.2 °C -12.3 °C 34347.6 hPa North 7.7 km/h 31.1 km/h 98 % 0 mm 35 W/m2
08:15 -12.2 °C -12.3 °C 34347.6 hPa NNW 28.5 km/h 31.1 km/h 98 % 0 mm 39 W/m2
08:20 -12.1 °C -12.3 °C 34347.6 hPa NNE 12.9 km/h 31.1 km/h 98 % 0 mm 84 W/m2
08:30 -12.1 °C -12.2 °C 34347.6 hPa NW 15.6 km/h 38.8 km/h 98 % 7.62 mm 105 W/m2
08:35 -11.9 °C -12.1 °C 34347.6 hPa North 5.1 km/h 23.3 km/h 98 % 7.62 mm 214 W/m2
08:40 -11.8 °C -12 °C 34347.6 hPa NNW 15.6 km/h 23.3 km/h 98 % 7.62 mm 178 W/m2
08:45 -11.8 °C -12 °C 34347.6 hPa Calm   23.3 km/h 98 % 7.62 mm 135 W/m2
08:50 -11.9 °C -12.1 °C 34347.6 hPa NNE 12.9 km/h 25.9 km/h 98 % 7.62 mm 116 W/m2
08:55 -11.9 °C -12.1 °C 34347.6 hPa NNW 10.3 km/h 25.9 km/h 98 % 7.62 mm 146 W/m2
09:00 -11.8 °C -12 °C 34347.6 hPa North 2.6 km/h 23.3 km/h 98 % 7.62 mm 132 W/m2
09:05 -11.8 °C -12 °C 34347.6 hPa NW 15.6 km/h 23.3 km/h 98 % 7.62 mm 130 W/m2
09:10 -11.9 °C -12.2 °C 34347.6 hPa NNE 25.9 km/h 25.9 km/h 97 % 7.62 mm 125 W/m2
09:15 -11.9 °C -12.2 °C 34347.6 hPa NNW 7.7 km/h 25.9 km/h 97 % 7.62 mm 95 W/m2
09:20 -12 °C -12.2 °C 34361.1 hPa NNE 5.1 km/h 31.1 km/h 97 % 7.62 mm 91 W/m2
09:25 -12 °C -12.3 °C 34361.1 hPa NNE 10.3 km/h 31.1 km/h 97 % 0 mm 98 W/m2
09:30 -11.8 °C -12.1 °C 34361.1 hPa NNW 2.6 km/h 20.8 km/h 97 % 0 mm 93 W/m2
09:35 -11.9 °C -12.1 °C 34361.1 hPa North 5.1 km/h 18.2 km/h 97 % 0 mm 67 W/m2
09:40 -11.9 °C -12.3 °C 34371.3 hPa Calm   23.3 km/h 96 % 0 mm 62 W/m2
09:45 -11.9 °C -12.1 °C 34371.3 hPa NNW 7.7 km/h 23.3 km/h 97 % 0 mm 70 W/m2
09:50 -11.9 °C -12.3 °C 34371.3 hPa Calm   18.2 km/h 96 % 0 mm 72 W/m2
09:55 -11.9 °C -12.3 °C 34371.3 hPa North 2.6 km/h 18.2 km/h 96 % 0 mm 77 W/m2
10:00 -11.8 °C -12.1 °C 34371.3 hPa North 5.1 km/h 15.6 km/h 96 % 0 mm 91 W/m2
10:05 -11.7 °C -12.1 °C 34371.3 hPa North 7.7 km/h 15.6 km/h 96 % 0 mm 144 W/m2
10:10 -11.6 °C -11.9 °C 34371.3 hPa NW 12.9 km/h 12.9 km/h 96 % 0 mm 63 W/m2
10:15 -11.6 °C -11.9 °C 34361.1 hPa NW 5.1 km/h 12.9 km/h 96 % 0 mm 121 W/m2
10:20 -11.5 °C -11.8 °C 34371.3 hPa WNW 5.1 km/h 12.9 km/h 96 % 0 mm 160 W/m2
10:25 -11.3 °C -11.6 °C 34371.3 hPa WNW 5.1 km/h 12.9 km/h 96 % 0 mm 163 W/m2
10:30 -11.2 °C -11.6 °C 34371.3 hPa NW 5.1 km/h 18.2 km/h 96 % 0 mm 165 W/m2
10:40 -10.9 °C -11.2 °C 34361.1 hPa Calm   15.6 km/h 97 % 0 mm 244 W/m2
10:45 -10.9 °C -11.2 °C 34361.1 hPa NW 7.7 km/h 15.6 km/h 96 % 0 mm 239 W/m2
10:50 -10.8 °C -11.1 °C 34347.6 hPa NNW 7.7 km/h 20.8 km/h 96 % 0 mm 269 W/m2
10:55 -10.9 °C -11.4 °C 34361.1 hPa North 10.3 km/h 20.8 km/h 94 % 0 mm 271 W/m2
11:00 -10.8 °C -11.3 °C 34371.3 hPa Calm   18.2 km/h 94 % 0 mm 216 W/m2
11:05 -10.8 °C -11.4 °C 34371.3 hPa NNW 7.7 km/h 18.2 km/h 93 % 0 mm 165 W/m2
11:10 -10.8 °C -11.4 °C 34371.3 hPa NW 2.6 km/h 18.2 km/h 93 % 0 mm 160 W/m2
11:15 -10.9 °C -11.6 °C 34371.3 hPa WNW 2.6 km/h 20.8 km/h 92 % 0 mm 188 W/m2
11:20 -10.9 °C -11.6 °C 34361.1 hPa Calm   20.8 km/h 92 % 0 mm 209 W/m2
11:25 -10.8 °C -11.4 °C 34371.3 hPa West 12.9 km/h 23.3 km/h 93 % 0 mm 176 W/m2
11:30 -10.9 °C -11.6 °C 34371.3 hPa WNW 7.7 km/h 23.3 km/h 92 % 0 mm 207 W/m2
11:35 -10.8 °C -11.4 °C 34371.3 hPa WNW 10.3 km/h 15.6 km/h 93 % 0 mm 192 W/m2
11:40 -10.7 °C -11.4 °C 34371.3 hPa NW 5.1 km/h 23.3 km/h 92 % 0 mm 195 W/m2
11:45 -10.9 °C -11.8 °C 34371.3 hPa NW 12.9 km/h 23.3 km/h 90 % 0 mm 209 W/m2
11:50 -10.9 °C -11.8 °C 34371.3 hPa NNW 5.1 km/h 20.8 km/h 90 % 0 mm 223 W/m2
11:55 -10.7 °C -11.6 °C 34361.1 hPa West 7.7 km/h 20.8 km/h 91 % 0 mm 221 W/m2
12:00 -10.7 °C -11.5 °C 34361.1 hPa NNW 12.9 km/h 12.9 km/h 91 % 0 mm 244 W/m2
12:05 -10.7 °C -11.5 °C 34361.1 hPa WNW 5.1 km/h 23.3 km/h 91 % 0 mm 253 W/m2
12:10 -10.7 °C -11.6 °C 34347.6 hPa NW 2.6 km/h 23.3 km/h 90 % 0 mm 234 W/m2
12:15 -10.7 °C -11.6 °C 34347.6 hPa North 2.6 km/h 15.6 km/h 90 % 0 mm 149 W/m2
12:20 -10.8 °C -11.9 °C 34347.6 hPa NNW 10.3 km/h 23.3 km/h 88 % 0 mm 144 W/m2
12:25 -10.8 °C -11.7 °C 34347.6 hPa Calm   23.3 km/h 90 % 0 mm 204 W/m2
12:30 -10.6 °C -11.3 °C 34347.6 hPa NNW 5.1 km/h 15.6 km/h 92 % 0 mm 211 W/m2
12:35 -10.6 °C -11.3 °C 34347.6 hPa NNW 15.6 km/h 20.8 km/h 91 % 0 mm 148 W/m2
12:40 -10.6 °C -11.4 °C 34337.4 hPa Calm   23.3 km/h 91 % 0 mm 160 W/m2
12:45 -10.7 °C -11.5 °C 34337.4 hPa WNW 10.3 km/h 23.3 km/h 91 % 0 mm 192 W/m2
12:50 -10.7 °C -11.7 °C 34347.6 hPa WNW 7.7 km/h 18.2 km/h 89 % 0 mm 163 W/m2
12:55 -10.7 °C -11.7 °C 34361.1 hPa WNW 7.7 km/h 20.8 km/h 89 % 0 mm 190 W/m2
13:00 -10.7 °C -11.7 °C 34361.1 hPa NW 20.8 km/h 20.8 km/h 88 % 0 mm 322 W/m2
13:05 -10.4 °C -11.5 °C 34361.1 hPa WNW 10.3 km/h 23.3 km/h 88 % 0 mm 352 W/m2
13:10 -10.3 °C -11.5 °C 34361.1 hPa Calm   23.3 km/h 87 % 0 mm 304 W/m2
13:15 -10.2 °C -11.4 °C 34361.1 hPa NNW 5.1 km/h 20.8 km/h 86 % 0 mm 373 W/m2
13:20 -10.1 °C -11.3 °C 34361.1 hPa North 2.6 km/h 20.8 km/h 87 % 0 mm 350 W/m2
13:25 -10.1 °C -11.6 °C 34361.1 hPa WNW 5.1 km/h 15.6 km/h 84 % 0 mm 308 W/m2
13:30 -9.9 °C -11.3 °C 34371.3 hPa NW 12.9 km/h 15.6 km/h 86 % 0 mm 230 W/m2
13:35 -10.1 °C -11.4 °C 34361.1 hPa NNW 7.7 km/h 23.3 km/h 86 % 0 mm 253 W/m2
13:40 -10.2 °C -11.7 °C 34361.1 hPa NW 15.6 km/h 23.3 km/h 84 % 0 mm 334 W/m2
13:45 -10.1 °C -11.6 °C 34361.1 hPa WNW 7.7 km/h 20.8 km/h 84 % 0 mm 332 W/m2
13:55 -9.8 °C -11.2 °C 34347.6 hPa NNW 7.7 km/h 23.3 km/h 85 % 0 mm 454 W/m2
14:00 -9.7 °C -11.5 °C 34361.1 hPa NW 15.6 km/h 28.5 km/h 81 % 0 mm 522 W/m2
14:05 -9.5 °C -11.4 °C 34347.6 hPa West 18.2 km/h 28.5 km/h 80 % 0 mm 694 W/m2
14:10 -9.3 °C -10.9 °C 34347.6 hPa WNW 5.1 km/h 23.3 km/h 82 % 0 mm 490 W/m2
14:15 -9.3 °C -11.1 °C 34347.6 hPa NW 10.3 km/h 25.9 km/h 81 % 0 mm 429 W/m2
14:20 -9.4 °C -11.4 °C 34347.6 hPa NE 5.1 km/h 25.9 km/h 79 % 0 mm 367 W/m2
14:25 -9.6 °C -11.4 °C 34347.6 hPa NW 7.7 km/h 28.5 km/h 80 % 0 mm 366 W/m2
14:30 -9.7 °C -11.7 °C 34347.6 hPa WNW 7.7 km/h 28.5 km/h 79 % 0 mm 345 W/m2
14:35 -9.7 °C -11.4 °C 34347.6 hPa NNW 15.6 km/h 25.9 km/h 81 % 0 mm 452 W/m2
14:40 -9.4 °C -11.3 °C 34347.6 hPa WNW 7.7 km/h 25.9 km/h 80 % 0 mm 443 W/m2
14:45 -9.4 °C -11.6 °C 34347.6 hPa WNW 18.2 km/h 25.9 km/h 78 % 0 mm 417 W/m2
14:50 -9.4 °C -11.2 °C 34347.6 hPa WNW 20.8 km/h 25.9 km/h 81 % 0 mm 432 W/m2
14:55 -9.4 °C -11.6 °C 34347.6 hPa West 18.2 km/h 25.9 km/h 78 % 0 mm 346 W/m2
15:00 -9.6 °C -11.7 °C 34347.6 hPa WSW 12.9 km/h 31.1 km/h 78 % 0 mm 341 W/m2
15:05 -9.5 °C -11.4 °C 34347.6 hPa WNW 12.9 km/h 31.1 km/h 80 % 0 mm 381 W/m2
15:10 -9.4 °C -11.3 °C 34337.4 hPa WNW 7.7 km/h 31.1 km/h 80 % 0 mm 348 W/m2
15:15 -9.4 °C -11.4 °C 34337.4 hPa West 12.9 km/h 36.2 km/h 79 % 0 mm 406 W/m2
15:20 -9.4 °C -11.3 °C 34337.4 hPa West 25.9 km/h 36.2 km/h 80 % 0 mm 461 W/m2
15:25 -9.4 °C -11.4 °C 34337.4 hPa NW 10.3 km/h 31.1 km/h 79 % 0 mm 420 W/m2
15:30 -9.5 °C -11.6 °C 34337.4 hPa WNW 20.8 km/h 33.6 km/h 78 % 0 mm 431 W/m2
15:35 -9.5 °C -11.3 °C 34337.4 hPa WNW 10.3 km/h 46.7 km/h 81 % 0 mm 399 W/m2
15:40 -9.6 °C -11.7 °C 34337.4 hPa WNW 18.2 km/h 46.7 km/h 78 % 0 mm 429 W/m2
15:45 -9.6 °C -11.8 °C 34337.4 hPa NNW 23.3 km/h 36.2 km/h 77 % 0 mm 420 W/m2
15:50 -9.6 °C -11.7 °C 34337.4 hPa WNW 20.8 km/h 38.8 km/h 78 % 0 mm 425 W/m2
15:55 -9.6 °C -11.6 °C 34337.4 hPa NW 25.9 km/h 38.8 km/h 79 % 0 mm 411 W/m2
16:00 -9.6 °C -11.5 °C 34337.4 hPa West 23.3 km/h 36.2 km/h 80 % 0 mm 413 W/m2
16:05 -9.6 °C -11.4 °C 34337.4 hPa WNW 12.9 km/h 36.2 km/h 81 % 0 mm 480 W/m2
16:10 -9.5 °C -11.4 °C 34337.4 hPa West 28.5 km/h 44.1 km/h 80 % 0 mm 454 W/m2
16:15 -9.6 °C -11.6 °C 34337.4 hPa WNW 20.8 km/h 49.2 km/h 79 % 0 mm 427 W/m2
16:20 -9.6 °C -11.6 °C 34337.4 hPa WNW 20.8 km/h 49.2 km/h 79 % 0 mm 520 W/m2
16:25 -9.4 °C -11.6 °C 34337.4 hPa WSW 12.9 km/h 41.4 km/h 78 % 0 mm 543 W/m2
16:30 -9.1 °C -11.3 °C 34337.4 hPa WNW 18.2 km/h 41.4 km/h 77 % 0 mm 679 W/m2
16:35 -9.1 °C -11.7 °C 34337.4 hPa NW 25.9 km/h 41.4 km/h 74 % 0 mm 408 W/m2
16:40 -9.3 °C -11.9 °C 34347.6 hPa West 20.8 km/h 44.1 km/h 73 % 0 mm 550 W/m2
16:45 -9.3 °C -12.1 °C 34347.6 hPa WNW 20.8 km/h 44.1 km/h 72 % 0 mm 446 W/m2
16:50 -9.3 °C -12 °C 34337.4 hPa West 25.9 km/h 38.8 km/h 73 % 0 mm 346 W/m2
16:55 -9.4 °C -11.8 °C 34347.6 hPa WNW 25.9 km/h 46.7 km/h 75 % 0 mm 392 W/m2
17:00 -9.5 °C -11.9 °C 34347.6 hPa West 23.3 km/h 46.7 km/h 75 % 0 mm 373 W/m2
17:05 -9.6 °C -12.2 °C 34347.6 hPa West 18.2 km/h 51.8 km/h 74 % 0 mm 345 W/m2
17:10 -9.6 °C -11.9 °C 34347.6 hPa WNW 20.8 km/h 51.8 km/h 76 % 0 mm 329 W/m2
17:15 -9.6 °C -12.2 °C 34347.6 hPa WNW 18.2 km/h 41.4 km/h 74 % 0 mm 346 W/m2
17:20 -9.7 °C -12.3 °C 34347.6 hPa WNW 38.8 km/h 41.4 km/h 73 % 0 mm 352 W/m2
17:25 -9.7 °C -12.1 °C 34347.6 hPa West 31.1 km/h 41.4 km/h 75 % 0 mm 352 W/m2
17:30 -9.7 °C -12.2 °C 34347.6 hPa WNW 33.6 km/h 46.7 km/h 74 % 0 mm 325 W/m2
17:35 -9.7 °C -12.1 °C 34347.6 hPa NW 10.3 km/h 46.7 km/h 76 % 0 mm 304 W/m2
17:40 -9.7 °C -11.9 °C 34347.6 hPa WNW 10.3 km/h 36.2 km/h 77 % 0 mm 299 W/m2
17:45 -9.7 °C -11.9 °C 34347.6 hPa WNW 33.6 km/h 44.1 km/h 77 % 0 mm 308 W/m2
17:50 -9.7 °C -11.9 °C 34347.6 hPa WNW 25.9 km/h 44.1 km/h 77 % 0 mm 288 W/m2
17:55 -9.7 °C -11.9 °C 34347.6 hPa NW 25.9 km/h 51.8 km/h 77 % 0 mm 403 W/m2
18:00 -9.6 °C -11.8 °C 34347.6 hPa WNW 12.9 km/h 51.8 km/h 77 % 0 mm 425 W/m2
18:05 -9.3 °C -11.7 °C 34347.6 hPa WNW 25.9 km/h 44.1 km/h 76 % 0 mm 492 W/m2
18:10 -9.2 °C -11.4 °C 34347.6 hPa WNW 15.6 km/h 33.6 km/h 77 % 0 mm 450 W/m2
18:15 -9.3 °C -12.1 °C 34347.6 hPa WNW 23.3 km/h 44.1 km/h 72 % 0 mm 429 W/m2
18:20 -9.3 °C -12 °C 34347.6 hPa NW 7.7 km/h 44.1 km/h 73 % 0 mm 299 W/m2
18:25 -9.5 °C -12.1 °C 34347.6 hPa West 18.2 km/h 38.8 km/h 74 % 0 mm 323 W/m2
18:30 -9.6 °C -12.1 °C 34347.6 hPa WNW 18.2 km/h 44.1 km/h 74 % 0 mm 309 W/m2
18:40 -9.8 °C -12.4 °C 34347.6 hPa WNW 20.8 km/h 54.4 km/h 73 % 0 mm 225 W/m2
18:45 -9.9 °C -12.6 °C 34347.6 hPa WNW 25.9 km/h 51.8 km/h 73 % 0 mm 158 W/m2
18:50 -10.1 °C -12.8 °C 34361.1 hPa NNW 20.8 km/h 41.4 km/h 72 % 0 mm 158 W/m2
18:55 -10.1 °C -12.6 °C 34361.1 hPa WNW 23.3 km/h 44.1 km/h 74 % 0 mm 179 W/m2
19:00 -10.1 °C -12.6 °C 34361.1 hPa NW 15.6 km/h 44.1 km/h 74 % 0 mm 202 W/m2
19:05 -10.1 °C -12.3 °C 34361.1 hPa WNW 31.1 km/h 41.4 km/h 76 % 0 mm 195 W/m2
19:10 -10.1 °C -12.6 °C 34361.1 hPa WNW 25.9 km/h 41.4 km/h 74 % 0 mm 211 W/m2
19:15 -10.1 °C -12.6 °C 34361.1 hPa WNW 12.9 km/h 41.4 km/h 74 % 0 mm 195 W/m2
19:20 -10.1 °C -12.7 °C 34361.1 hPa NW 10.3 km/h 41.4 km/h 73 % 0 mm 176 W/m2
19:25 -10.2 °C -12.9 °C 34361.1 hPa WNW 36.2 km/h 46.7 km/h 72 % 0 mm 155 W/m2
19:30 -10.3 °C -12.9 °C 34361.1 hPa WNW 7.7 km/h 46.7 km/h 73 % 0 mm 149 W/m2
19:35 -10.3 °C -12.9 °C 34361.1 hPa NNW 15.6 km/h 44.1 km/h 73 % 0 mm 151 W/m2
19:40 -10.3 °C -12.8 °C 34361.1 hPa West 31.1 km/h 41.4 km/h 74 % 0 mm 169 W/m2
19:45 -10.2 °C -12.8 °C 34361.1 hPa WNW 20.8 km/h 38.8 km/h 74 % 0 mm 193 W/m2
19:50 -10.2 °C -13.1 °C 34361.1 hPa NW 15.6 km/h 38.8 km/h 71 % 0 mm 142 W/m2
19:55 -10.3 °C -13.2 °C 34361.1 hPa WNW 7.7 km/h 41.4 km/h 71 % 0 mm 199 W/m2
20:00 -10.2 °C -12.9 °C 34361.1 hPa WNW 18.2 km/h 41.4 km/h 72 % 0 mm 171 W/m2
20:05 -10.1 °C -12.8 °C 34361.1 hPa WNW 23.3 km/h 38.8 km/h 73 % 0 mm 239 W/m2
20:10 -10.1 °C -12.9 °C 34361.1 hPa West 15.6 km/h 31.1 km/h 71 % 0 mm 169 W/m2
20:15 -9.9 °C -12.6 °C 34361.1 hPa NW 18.2 km/h 33.6 km/h 73 % 0 mm 234 W/m2
20:20 -9.9 °C -12.7 °C 34371.3 hPa WNW 12.9 km/h 38.8 km/h 72 % 0 mm 127 W/m2
20:25 -10.1 °C -12.7 °C 34361.1 hPa West 7.7 km/h 38.8 km/h 73 % 0 mm 114 W/m2
20:30 -10.2 °C -12.6 °C 34361.1 hPa NW 23.3 km/h 41.4 km/h 75 % 0 mm 90 W/m2
20:40 -10.4 °C -12.7 °C 34371.3 hPa WNW 33.6 km/h 41.4 km/h 76 % 0 mm 54 W/m2
20:45 -10.4 °C -12.6 °C 34371.3 hPa WNW 15.6 km/h 41.4 km/h 77 % 0 mm 42 W/m2
20:50 -10.5 °C -12.7 °C 34371.3 hPa NW 33.6 km/h 38.8 km/h 77 % 0 mm 40 W/m2
20:55 -10.6 °C -12.6 °C 34371.3 hPa West 20.8 km/h 38.8 km/h 78 % 0 mm 39 W/m2
21:00 -10.6 °C -12.6 °C 34371.3 hPa WNW 12.9 km/h 38.8 km/h 79 % 0 mm 25 W/m2
21:05 -10.7 °C -12.8 °C 34371.3 hPa WNW 20.8 km/h 31.1 km/h 78 % 0 mm 30 W/m2
21:10 -10.8 °C -12.8 °C 34371.3 hPa NW 12.9 km/h 33.6 km/h 78 % 0 mm 21 W/m2
21:15 -10.8 °C -12.9 °C 34371.3 hPa NW 10.3 km/h 33.6 km/h 78 % 0 mm 21 W/m2
21:20 -10.9 °C -12.9 °C 34384.8 hPa NW 20.8 km/h 36.2 km/h 78 % 0 mm 19 W/m2
21:25 -10.9 °C -13.1 °C 34384.8 hPa NW 15.6 km/h 36.2 km/h 77 % 0 mm 14 W/m2
21:30 -10.9 °C -13 °C 34384.8 hPa West 10.3 km/h 33.6 km/h 78 % 0 mm 11 W/m2
21:35 -10.9 °C -12.9 °C 34384.8 hPa WNW 7.7 km/h 23.3 km/h 79 % 0 mm 9 W/m2
21:40 -10.9 °C -13 °C 34384.8 hPa NW 20.8 km/h 36.2 km/h 78 % 0 mm 5 W/m2
21:45 -10.9 °C -13 °C 34384.8 hPa WNW 7.7 km/h 36.2 km/h 78 % 0 mm 0 W/m2
21:50 -11.1 °C -13.1 °C 34384.8 hPa WNW 20.8 km/h 25.9 km/h 78 % 0 mm 0 W/m2
21:55 -11.1 °C -13.4 °C 34384.8 hPa WNW 15.6 km/h 38.8 km/h 76 % 0 mm 0 W/m2
22:00 -11.2 °C -13.6 °C 34384.8 hPa NW 15.6 km/h 38.8 km/h 75 % 0 mm 0 W/m2
22:05 -11.2 °C -13.7 °C 34384.8 hPa WNW 12.9 km/h 31.1 km/h 74 % 0 mm 0 W/m2
22:10 -11.1 °C -13.6 °C 34384.8 hPa WNW 15.6 km/h 33.6 km/h 74 % 0 mm 0 W/m2
22:15 -11.1 °C -13.6 °C 34384.8 hPa NW 18.2 km/h 33.6 km/h 74 % 0 mm 0 W/m2
22:20 -11.2 °C -13.4 °C 34395 hPa WNW 10.3 km/h 31.1 km/h 76 % 0 mm 0 W/m2
22:25 -11.2 °C -13.3 °C 34395 hPa West 28.5 km/h 31.1 km/h 77 % 0 mm 0 W/m2
22:30 -11.1 °C -13.3 °C 34395 hPa WNW 7.7 km/h 33.6 km/h 77 % 0 mm 0 W/m2
22:35 -11.1 °C -13.2 °C 34395 hPa WNW 7.7 km/h 33.6 km/h 78 % 0 mm 0 W/m2
22:40 -11.1 °C -13.2 °C 34395 hPa West 18.2 km/h 28.5 km/h 78 % 0 mm 0 W/m2
22:45 -11.1 °C -13.2 °C 34395 hPa WNW 5.1 km/h 28.5 km/h 78 % 0 mm 0 W/m2
22:50 -11.2 °C -13.2 °C 34395 hPa WNW 25.9 km/h 28.5 km/h 78 % 0 mm 0 W/m2
22:55 -11.2 °C -13.2 °C 34395 hPa WNW 5.1 km/h 31.1 km/h 78 % 0 mm 0 W/m2
23:00 -11.2 °C -13.2 °C 34395 hPa WNW 15.6 km/h 31.1 km/h 78 % 0 mm 0 W/m2
23:05 -11.2 °C -13.2 °C 34395 hPa West 12.9 km/h 28.5 km/h 78 % 0 mm 0 W/m2
23:10 -11.2 °C -13.2 °C 34405.1 hPa NW 12.9 km/h 25.9 km/h 79 % 0 mm 0 W/m2
23:15 -11.3 °C -13.3 °C 34395 hPa WNW 7.7 km/h 23.3 km/h 79 % 0 mm 0 W/m2
23:20 -11.3 °C -13.3 °C 34405.1 hPa West 15.6 km/h 25.9 km/h 79 % 0 mm 0 W/m2
23:25 -11.3 °C -13.3 °C 34405.1 hPa NW 12.9 km/h 25.9 km/h 78 % 0 mm 0 W/m2
23:30 -11.3 °C -13.3 °C 34395 hPa NW 15.6 km/h 25.9 km/h 79 % 0 mm 0 W/m2
23:35 -11.3 °C -13.3 °C 34395 hPa WNW 15.6 km/h 25.9 km/h 78 % 0 mm 0 W/m2
23:40 -11.3 °C -13.2 °C 34395 hPa WNW 15.6 km/h 25.9 km/h 79 % 0 mm 0 W/m2
23:45 -11.3 °C -13.2 °C 34395 hPa WSW 15.6 km/h 25.9 km/h 79 % 0 mm 0 W/m2
23:50 -11.3 °C -13.1 °C 34395 hPa NW 12.9 km/h 25.9 km/h 80 % 0 mm 0 W/m2
23:55 -11.3 °C -13.1 °C 34395 hPa WNW 10.3 km/h 20.8 km/h 80 % 0 mm 0 W/m2
Avec l'autorisation de Weather Underground - 1.75 mb